sensor_id;sensor_type;location;lat;lon;timestamp;P1;durP1;ratioP1;P2;durP2;ratioP2
31083;SDS011;36333;51.382;0.016;2022-11-14T00:02:43;119.63;;;56.55;;
31083;SDS011;36333;51.382;0.016;2022-11-14T00:05:29;174.75;;;81.93;;
31083;SDS011;36333;51.382;0.016;2022-11-14T00:08:18;145.13;;;77.22;;
31083;SDS011;36333;51.382;0.016;2022-11-14T00:11:06;112.00;;;52.92;;
31083;SDS011;36333;51.382;0.016;2022-11-14T00:13:54;123.18;;;54.50;;
31083;SDS011;36333;51.382;0.016;2022-11-14T00:16:39;157.63;;;58.55;;
31083;SDS011;36333;51.382;0.016;2022-11-14T00:19:25;116.28;;;51.60;;
31083;SDS011;36333;51.382;0.016;2022-11-14T00:22:12;158.40;;;60.33;;
31083;SDS011;36333;51.382;0.016;2022-11-14T00:24:58;143.00;;;61.67;;
31083;SDS011;36333;51.382;0.016;2022-11-14T00:27:44;136.40;;;54.60;;
31083;SDS011;36333;51.382;0.016;2022-11-14T00:30:30;100.05;;;46.53;;
31083;SDS011;36333;51.382;0.016;2022-11-14T00:33:17;103.82;;;48.53;;
31083;SDS011;36333;51.382;0.016;2022-11-14T00:36:05;90.70;;;44.50;;
31083;SDS011;36333;51.382;0.016;2022-11-14T00:38:52;79.65;;;42.20;;
31083;SDS011;36333;51.382;0.016;2022-11-14T00:41:39;78.47;;;42.83;;
31083;SDS011;36333;51.382;0.016;2022-11-14T00:44:26;76.82;;;41.58;;
31083;SDS011;36333;51.382;0.016;2022-11-14T00:47:12;90.88;;;43.00;;
31083;SDS011;36333;51.382;0.016;2022-11-14T00:49:58;99.25;;;47.80;;
31083;SDS011;36333;51.382;0.016;2022-11-14T00:52:44;80.15;;;41.60;;
31083;SDS011;36333;51.382;0.016;2022-11-14T00:55:30;118.75;;;49.08;;
31083;SDS011;36333;51.382;0.016;2022-11-14T00:58:16;127.65;;;54.55;;
31083;SDS011;36333;51.382;0.016;2022-11-14T01:01:02;273.80;;;81.05;;
31083;SDS011;36333;51.382;0.016;2022-11-14T01:03:49;202.88;;;70.45;;
31083;SDS011;36333;51.382;0.016;2022-11-14T01:06:35;250.90;;;77.63;;
31083;SDS011;36333;51.382;0.016;2022-11-14T01:09:21;218.95;;;71.82;;
31083;SDS011;36333;51.382;0.016;2022-11-14T01:12:07;253.52;;;78.60;;
31083;SDS011;36333;51.382;0.016;2022-11-14T01:14:53;295.30;;;79.38;;
31083;SDS011;36333;51.382;0.016;2022-11-14T01:17:39;312.83;;;84.90;;
31083;SDS011;36333;51.382;0.016;2022-11-14T01:20:26;290.00;;;82.38;;
31083;SDS011;36333;51.382;0.016;2022-11-14T01:23:13;348.15;;;92.85;;
31083;SDS011;36333;51.382;0.016;2022-11-14T01:26:04;247.60;;;77.85;;
31083;SDS011;36333;51.382;0.016;2022-11-14T01:28:51;261.75;;;84.43;;
31083;SDS011;36333;51.382;0.016;2022-11-14T01:31:38;249.77;;;80.50;;
31083;SDS011;36333;51.382;0.016;2022-11-14T01:34:24;240.93;;;82.07;;
31083;SDS011;36333;51.382;0.016;2022-11-14T01:37:11;239.15;;;75.80;;
31083;SDS011;36333;51.382;0.016;2022-11-14T01:39:57;292.45;;;88.78;;
31083;SDS011;36333;51.382;0.016;2022-11-14T01:46:11;247.60;;;86.50;;
31083;SDS011;36333;51.382;0.016;2022-11-14T01:49:02;293.65;;;94.95;;
31083;SDS011;36333;51.382;0.016;2022-11-14T01:52:05;225.93;;;87.78;;
31083;SDS011;36333;51.382;0.016;2022-11-14T01:55:01;403.02;;;114.90;;
31083;SDS011;36333;51.382;0.016;2022-11-14T01:57:49;437.80;;;118.13;;
31083;SDS011;36333;51.382;0.016;2022-11-14T02:00:35;258.35;;;91.65;;
31083;SDS011;36333;51.382;0.016;2022-11-14T02:03:22;354.20;;;107.60;;
31083;SDS011;36333;51.382;0.016;2022-11-14T02:06:09;297.42;;;95.68;;
31083;SDS011;36333;51.382;0.016;2022-11-14T02:08:59;185.48;;;77.28;;
31083;SDS011;36333;51.382;0.016;2022-11-14T02:11:48;192.18;;;77.72;;
31083;SDS011;36333;51.382;0.016;2022-11-14T02:14:36;239.38;;;86.28;;
31083;SDS011;36333;51.382;0.016;2022-11-14T02:17:23;173.68;;;73.68;;
31083;SDS011;36333;51.382;0.016;2022-11-14T02:20:17;164.20;;;67.57;;
31083;SDS011;36333;51.382;0.016;2022-11-14T02:23:09;154.93;;;67.68;;
31083;SDS011;36333;51.382;0.016;2022-11-14T02:25:56;186.05;;;72.55;;
31083;SDS011;36333;51.382;0.016;2022-11-14T02:28:42;155.85;;;57.63;;
31083;SDS011;36333;51.382;0.016;2022-11-14T02:31:28;157.25;;;53.60;;
31083;SDS011;36333;51.382;0.016;2022-11-14T02:34:14;146.80;;;46.25;;
31083;SDS011;36333;51.382;0.016;2022-11-14T02:37:04;154.82;;;46.78;;
31083;SDS011;36333;51.382;0.016;2022-11-14T02:39:51;149.07;;;45.30;;
31083;SDS011;36333;51.382;0.016;2022-11-14T02:42:37;138.68;;;42.90;;
31083;SDS011;36333;51.382;0.016;2022-11-14T02:45:23;133.23;;;41.75;;
31083;SDS011;36333;51.382;0.016;2022-11-14T02:48:10;120.35;;;38.70;;
31083;SDS011;36333;51.382;0.016;2022-11-14T02:50:56;103.75;;;36.45;;
31083;SDS011;36333;51.382;0.016;2022-11-14T02:53:42;115.25;;;37.38;;
31083;SDS011;36333;51.382;0.016;2022-11-14T02:56:29;101.32;;;32.92;;
31083;SDS011;36333;51.382;0.016;2022-11-14T02:59:14;95.15;;;33.15;;
31083;SDS011;36333;51.382;0.016;2022-11-14T03:02:00;115.47;;;33.42;;
31083;SDS011;36333;51.382;0.016;2022-11-14T03:04:47;104.22;;;33.83;;
31083;SDS011;36333;51.382;0.016;2022-11-14T03:07:33;96.82;;;34.60;;
31083;SDS011;36333;51.382;0.016;2022-11-14T03:10:19;117.97;;;34.38;;
31083;SDS011;36333;51.382;0.016;2022-11-14T03:13:06;106.70;;;36.08;;
31083;SDS011;36333;51.382;0.016;2022-11-14T03:15:52;92.80;;;34.53;;
31083;SDS011;36333;51.382;0.016;2022-11-14T03:18:38;101.47;;;34.58;;
31083;SDS011;36333;51.382;0.016;2022-11-14T03:21:24;109.93;;;33.75;;
31083;SDS011;36333;51.382;0.016;2022-11-14T03:24:11;79.30;;;30.17;;
31083;SDS011;36333;51.382;0.016;2022-11-14T03:26:56;73.45;;;27.27;;
31083;SDS011;36333;51.382;0.016;2022-11-14T03:29:42;64.43;;;25.63;;
31083;SDS011;36333;51.382;0.016;2022-11-14T03:32:28;51.65;;;23.02;;
31083;SDS011;36333;51.382;0.016;2022-11-14T03:35:14;66.10;;;24.27;;
31083;SDS011;36333;51.382;0.016;2022-11-14T03:38:00;61.22;;;23.25;;
31083;SDS011;36333;51.382;0.016;2022-11-14T03:40:46;64.75;;;23.45;;
31083;SDS011;36333;51.382;0.016;2022-11-14T03:43:32;53.85;;;23.52;;
31083;SDS011;36333;51.382;0.016;2022-11-14T03:46:19;43.00;;;21.17;;
31083;SDS011;36333;51.382;0.016;2022-11-14T03:49:05;50.15;;;21.08;;
31083;SDS011;36333;51.382;0.016;2022-11-14T03:51:51;45.97;;;20.23;;
31083;SDS011;36333;51.382;0.016;2022-11-14T03:54:38;51.65;;;20.52;;
31083;SDS011;36333;51.382;0.016;2022-11-14T03:57:23;53.38;;;21.45;;
31083;SDS011;36333;51.382;0.016;2022-11-14T04:00:09;57.22;;;21.70;;
31083;SDS011;36333;51.382;0.016;2022-11-14T04:02:56;52.45;;;20.27;;
31083;SDS011;36333;51.382;0.016;2022-11-14T04:05:42;59.08;;;22.20;;
31083;SDS011;36333;51.382;0.016;2022-11-14T04:08:29;56.40;;;21.70;;
31083;SDS011;36333;51.382;0.016;2022-11-14T04:11:17;58.35;;;22.33;;
31083;SDS011;36333;51.382;0.016;2022-11-14T04:14:04;67.82;;;22.48;;
31083;SDS011;36333;51.382;0.016;2022-11-14T04:16:49;76.45;;;23.02;;
31083;SDS011;36333;51.382;0.016;2022-11-14T04:19:35;60.38;;;23.63;;
31083;SDS011;36333;51.382;0.016;2022-11-14T04:22:21;62.42;;;24.02;;
31083;SDS011;36333;51.382;0.016;2022-11-14T04:25:08;54.65;;;20.85;;
31083;SDS011;36333;51.382;0.016;2022-11-14T04:27:54;61.03;;;19.95;;
31083;SDS011;36333;51.382;0.016;2022-11-14T04:30:40;53.10;;;20.20;;
31083;SDS011;36333;51.382;0.016;2022-11-14T04:33:26;58.33;;;20.83;;
31083;SDS011;36333;51.382;0.016;2022-11-14T04:36:12;73.95;;;23.15;;
31083;SDS011;36333;51.382;0.016;2022-11-14T04:38:59;83.95;;;23.00;;
31083;SDS011;36333;51.382;0.016;2022-11-14T04:41:45;83.70;;;22.83;;
31083;SDS011;36333;51.382;0.016;2022-11-14T04:44:31;79.78;;;22.23;;
31083;SDS011;36333;51.382;0.016;2022-11-14T04:47:17;83.35;;;22.85;;
31083;SDS011;36333;51.382;0.016;2022-11-14T04:50:03;75.20;;;22.13;;
31083;SDS011;36333;51.382;0.016;2022-11-14T04:52:50;77.85;;;20.80;;
31083;SDS011;36333;51.382;0.016;2022-11-14T04:55:37;73.07;;;21.98;;
31083;SDS011;36333;51.382;0.016;2022-11-14T04:58:24;76.53;;;22.67;;
31083;SDS011;36333;51.382;0.016;2022-11-14T05:01:10;101.22;;;26.77;;
31083;SDS011;36333;51.382;0.016;2022-11-14T05:03:58;87.88;;;22.67;;
31083;SDS011;36333;51.382;0.016;2022-11-14T05:06:44;99.10;;;25.25;;
31083;SDS011;36333;51.382;0.016;2022-11-14T05:09:30;104.20;;;26.10;;
31083;SDS011;36333;51.382;0.016;2022-11-14T05:12:16;113.18;;;27.20;;
31083;SDS011;36333;51.382;0.016;2022-11-14T05:15:02;106.15;;;25.92;;
31083;SDS011;36333;51.382;0.016;2022-11-14T05:17:49;126.32;;;28.75;;
31083;SDS011;36333;51.382;0.016;2022-11-14T05:20:35;130.57;;;28.85;;
31083;SDS011;36333;51.382;0.016;2022-11-14T05:23:21;124.60;;;28.80;;
31083;SDS011;36333;51.382;0.016;2022-11-14T05:26:13;139.33;;;28.50;;
31083;SDS011;36333;51.382;0.016;2022-11-14T05:29:00;144.30;;;28.85;;
31083;SDS011;36333;51.382;0.016;2022-11-14T05:31:46;129.30;;;29.60;;
31083;SDS011;36333;51.382;0.016;2022-11-14T05:34:32;146.18;;;32.75;;
31083;SDS011;36333;51.382;0.016;2022-11-14T05:37:18;143.68;;;30.60;;
31083;SDS011;36333;51.382;0.016;2022-11-14T05:40:04;147.20;;;30.88;;
31083;SDS011;36333;51.382;0.016;2022-11-14T05:42:53;150.02;;;30.73;;
31083;SDS011;36333;51.382;0.016;2022-11-14T05:45:39;131.95;;;30.00;;
31083;SDS011;36333;51.382;0.016;2022-11-14T05:48:25;145.32;;;29.45;;
31083;SDS011;36333;51.382;0.016;2022-11-14T05:51:12;148.77;;;28.65;;
31083;SDS011;36333;51.382;0.016;2022-11-14T05:53:59;124.55;;;27.55;;
31083;SDS011;36333;51.382;0.016;2022-11-14T05:56:45;136.63;;;28.80;;
31083;SDS011;36333;51.382;0.016;2022-11-14T05:59:31;136.70;;;29.10;;
31083;SDS011;36333;51.382;0.016;2022-11-14T06:02:17;140.52;;;29.40;;
31083;SDS011;36333;51.382;0.016;2022-11-14T06:05:04;171.98;;;30.00;;
31083;SDS011;36333;51.382;0.016;2022-11-14T06:07:54;136.85;;;28.35;;
31083;SDS011;36333;51.382;0.016;2022-11-14T06:10:41;111.82;;;25.80;;
31083;SDS011;36333;51.382;0.016;2022-11-14T06:13:27;114.05;;;23.77;;
31083;SDS011;36333;51.382;0.016;2022-11-14T06:16:17;102.40;;;23.20;;
31083;SDS011;36333;51.382;0.016;2022-11-14T06:19:04;111.18;;;24.92;;
31083;SDS011;36333;51.382;0.016;2022-11-14T06:21:50;143.95;;;23.60;;
31083;SDS011;36333;51.382;0.016;2022-11-14T06:24:36;94.85;;;23.10;;
31083;SDS011;36333;51.382;0.016;2022-11-14T06:27:22;106.82;;;22.50;;
31083;SDS011;36333;51.382;0.016;2022-11-14T06:30:08;105.00;;;23.13;;
31083;SDS011;36333;51.382;0.016;2022-11-14T06:32:55;98.22;;;24.92;;
31083;SDS011;36333;51.382;0.016;2022-11-14T06:35:43;100.20;;;25.13;;
31083;SDS011;36333;51.382;0.016;2022-11-14T06:38:32;105.03;;;25.80;;
31083;SDS011;36333;51.382;0.016;2022-11-14T06:41:20;127.85;;;26.98;;
31083;SDS011;36333;51.382;0.016;2022-11-14T06:44:08;121.55;;;25.40;;
31083;SDS011;36333;51.382;0.016;2022-11-14T06:46:54;93.22;;;23.77;;
31083;SDS011;36333;51.382;0.016;2022-11-14T06:49:40;97.65;;;24.20;;
31083;SDS011;36333;51.382;0.016;2022-11-14T06:52:27;110.97;;;23.90;;
31083;SDS011;36333;51.382;0.016;2022-11-14T06:55:13;130.70;;;27.50;;
31083;SDS011;36333;51.382;0.016;2022-11-14T06:58:02;124.25;;;26.75;;
31083;SDS011;36333;51.382;0.016;2022-11-14T07:00:48;124.22;;;24.95;;
31083;SDS011;36333;51.382;0.016;2022-11-14T07:03:34;141.57;;;28.17;;
31083;SDS011;36333;51.382;0.016;2022-11-14T07:06:21;152.63;;;25.27;;
31083;SDS011;36333;51.382;0.016;2022-11-14T07:09:09;109.22;;;26.45;;
31083;SDS011;36333;51.382;0.016;2022-11-14T07:11:55;115.93;;;26.08;;
31083;SDS011;36333;51.382;0.016;2022-11-14T07:14:41;157.70;;;27.55;;
31083;SDS011;36333;51.382;0.016;2022-11-14T07:17:27;128.15;;;26.17;;
31083;SDS011;36333;51.382;0.016;2022-11-14T07:20:15;174.43;;;29.95;;
31083;SDS011;36333;51.382;0.016;2022-11-14T07:23:04;122.20;;;25.92;;
31083;SDS011;36333;51.382;0.016;2022-11-14T07:25:50;133.50;;;27.05;;
31083;SDS011;36333;51.382;0.016;2022-11-14T07:28:38;275.58;;;35.13;;
31083;SDS011;36333;51.382;0.016;2022-11-14T07:31:25;184.93;;;34.25;;
31083;SDS011;36333;51.382;0.016;2022-11-14T07:34:11;323.48;;;33.83;;
31083;SDS011;36333;51.382;0.016;2022-11-14T07:36:58;217.88;;;35.10;;
31083;SDS011;36333;51.382;0.016;2022-11-14T07:39:47;330.02;;;38.95;;
31083;SDS011;36333;51.382;0.016;2022-11-14T07:42:35;447.02;;;41.22;;
31083;SDS011;36333;51.382;0.016;2022-11-14T07:45:21;271.75;;;36.28;;
31083;SDS011;36333;51.382;0.016;2022-11-14T07:48:08;321.88;;;35.97;;
31083;SDS011;36333;51.382;0.016;2022-11-14T07:51:00;286.63;;;34.92;;
31083;SDS011;36333;51.382;0.016;2022-11-14T07:53:50;249.57;;;31.67;;
31083;SDS011;36333;51.382;0.016;2022-11-14T07:56:37;174.52;;;32.67;;
31083;SDS011;36333;51.382;0.016;2022-11-14T07:59:23;261.58;;;37.47;;
31083;SDS011;36333;51.382;0.016;2022-11-14T08:02:13;197.80;;;34.45;;
31083;SDS011;36333;51.382;0.016;2022-11-14T08:05:00;211.77;;;34.90;;
31083;SDS011;36333;51.382;0.016;2022-11-14T08:07:46;302.45;;;35.70;;
31083;SDS011;36333;51.382;0.016;2022-11-14T08:10:43;395.25;;;41.70;;
31083;SDS011;36333;51.382;0.016;2022-11-14T08:13:29;375.77;;;40.92;;
31083;SDS011;36333;51.382;0.016;2022-11-14T08:16:18;239.15;;;38.70;;
31083;SDS011;36333;51.382;0.016;2022-11-14T08:19:04;322.50;;;45.80;;
31083;SDS011;36333;51.382;0.016;2022-11-14T08:21:50;290.75;;;40.55;;
31083;SDS011;36333;51.382;0.016;2022-11-14T08:24:36;302.17;;;39.45;;
31083;SDS011;36333;51.382;0.016;2022-11-14T08:27:22;442.20;;;43.17;;
31083;SDS011;36333;51.382;0.016;2022-11-14T08:30:08;420.25;;;41.78;;
31083;SDS011;36333;51.382;0.016;2022-11-14T08:32:55;244.63;;;44.83;;
31083;SDS011;36333;51.382;0.016;2022-11-14T08:35:41;196.48;;;37.35;;
31083;SDS011;36333;51.382;0.016;2022-11-14T08:38:27;144.63;;;29.20;;
31083;SDS011;36333;51.382;0.016;2022-11-14T08:41:15;140.38;;;29.45;;
31083;SDS011;36333;51.382;0.016;2022-11-14T08:44:00;132.98;;;29.02;;
31083;SDS011;36333;51.382;0.016;2022-11-14T08:46:46;135.13;;;28.00;;
31083;SDS011;36333;51.382;0.016;2022-11-14T08:49:34;136.52;;;28.70;;
31083;SDS011;36333;51.382;0.016;2022-11-14T08:52:20;173.60;;;31.73;;
31083;SDS011;36333;51.382;0.016;2022-11-14T08:55:06;201.82;;;32.90;;
31083;SDS011;36333;51.382;0.016;2022-11-14T08:57:52;145.93;;;30.38;;
31083;SDS011;36333;51.382;0.016;2022-11-14T09:00:39;124.35;;;27.45;;
31083;SDS011;36333;51.382;0.016;2022-11-14T09:03:25;123.57;;;26.85;;
31083;SDS011;36333;51.382;0.016;2022-11-14T09:06:12;121.72;;;27.15;;
31083;SDS011;36333;51.382;0.016;2022-11-14T09:08:57;119.10;;;26.40;;
31083;SDS011;36333;51.382;0.016;2022-11-14T09:11:43;136.57;;;27.20;;
31083;SDS011;36333;51.382;0.016;2022-11-14T09:14:30;96.32;;;24.98;;
31083;SDS011;36333;51.382;0.016;2022-11-14T09:17:18;106.43;;;25.40;;
31083;SDS011;36333;51.382;0.016;2022-11-14T09:20:04;114.88;;;26.55;;
31083;SDS011;36333;51.382;0.016;2022-11-14T09:22:50;95.43;;;24.55;;
31083;SDS011;36333;51.382;0.016;2022-11-14T09:25:38;85.25;;;23.52;;
31083;SDS011;36333;51.382;0.016;2022-11-14T09:28:24;77.13;;;23.85;;
31083;SDS011;36333;51.382;0.016;2022-11-14T09:31:10;75.60;;;22.85;;
31083;SDS011;36333;51.382;0.016;2022-11-14T09:33:57;73.50;;;23.17;;
31083;SDS011;36333;51.382;0.016;2022-11-14T09:36:43;67.45;;;21.98;;
31083;SDS011;36333;51.382;0.016;2022-11-14T09:39:29;63.40;;;20.63;;
31083;SDS011;36333;51.382;0.016;2022-11-14T09:45:19;64.20;;;21.77;;
31083;SDS011;36333;51.382;0.016;2022-11-14T09:48:06;64.22;;;21.02;;
31083;SDS011;36333;51.382;0.016;2022-11-14T09:51:04;65.85;;;21.63;;
31083;SDS011;36333;51.382;0.016;2022-11-14T09:54:19;48.53;;;19.15;;
31083;SDS011;36333;51.382;0.016;2022-11-14T09:57:15;64.78;;;20.60;;
31083;SDS011;36333;51.382;0.016;2022-11-14T10:00:13;53.08;;;20.45;;
31083;SDS011;36333;51.382;0.016;2022-11-14T10:03:19;57.83;;;21.02;;
31083;SDS011;36333;51.382;0.016;2022-11-14T10:06:39;53.63;;;20.13;;
31083;SDS011;36333;51.382;0.016;2022-11-14T10:12:57;48.15;;;19.40;;
31083;SDS011;36333;51.382;0.016;2022-11-14T10:19:08;40.95;;;18.13;;
31083;SDS011;36333;51.382;0.016;2022-11-14T10:22:21;39.42;;;18.42;;
31083;SDS011;36333;51.382;0.016;2022-11-14T10:25:29;34.22;;;16.77;;
31083;SDS011;36333;51.382;0.016;2022-11-14T10:28:32;34.03;;;17.33;;
31083;SDS011;36333;51.382;0.016;2022-11-14T10:34:41;31.30;;;16.40;;
31083;SDS011;36333;51.382;0.016;2022-11-14T10:37:40;28.05;;;15.52;;
31083;SDS011;36333;51.382;0.016;2022-11-14T10:40:41;31.30;;;16.02;;
31083;SDS011;36333;51.382;0.016;2022-11-14T10:43:35;28.43;;;15.33;;
31083;SDS011;36333;51.382;0.016;2022-11-14T10:46:27;28.83;;;14.68;;
31083;SDS011;36333;51.382;0.016;2022-11-14T10:49:19;23.73;;;14.45;;
31083;SDS011;36333;51.382;0.016;2022-11-14T10:52:14;27.70;;;14.45;;
31083;SDS011;36333;51.382;0.016;2022-11-14T10:55:12;24.33;;;14.15;;
31083;SDS011;36333;51.382;0.016;2022-11-14T10:58:00;24.73;;;14.55;;
31083;SDS011;36333;51.382;0.016;2022-11-14T11:00:46;27.25;;;14.10;;
31083;SDS011;36333;51.382;0.016;2022-11-14T11:03:41;24.42;;;13.75;;
31083;SDS011;36333;51.382;0.016;2022-11-14T11:06:29;25.67;;;14.77;;
31083;SDS011;36333;51.382;0.016;2022-11-14T11:09:16;21.02;;;13.30;;
31083;SDS011;36333;51.382;0.016;2022-11-14T11:15:28;25.50;;;13.80;;
31083;SDS011;36333;51.382;0.016;2022-11-14T11:18:22;24.55;;;14.88;;
31083;SDS011;36333;51.382;0.016;2022-11-14T11:21:17;24.10;;;14.20;;
31083;SDS011;36333;51.382;0.016;2022-11-14T11:24:07;21.48;;;13.85;;
31083;SDS011;36333;51.382;0.016;2022-11-14T11:33:14;24.05;;;14.65;;
31083;SDS011;36333;51.382;0.016;2022-11-14T11:36:06;29.52;;;15.18;;
31083;SDS011;36333;51.382;0.016;2022-11-14T11:39:00;26.35;;;15.93;;
31083;SDS011;36333;51.382;0.016;2022-11-14T11:41:46;26.08;;;15.32;;
31083;SDS011;36333;51.382;0.016;2022-11-14T11:44:58;25.20;;;15.20;;
31083;SDS011;36333;51.382;0.016;2022-11-14T11:47:49;23.02;;;15.55;;
31083;SDS011;36333;51.382;0.016;2022-11-14T11:50:39;26.85;;;15.65;;
31083;SDS011;36333;51.382;0.016;2022-11-14T11:53:30;26.63;;;16.13;;
31083;SDS011;36333;51.382;0.016;2022-11-14T11:56:21;27.88;;;16.70;;
31083;SDS011;36333;51.382;0.016;2022-11-14T11:59:18;32.90;;;18.02;;
31083;SDS011;36333;51.382;0.016;2022-11-14T12:02:47;27.85;;;18.20;;
31083;SDS011;36333;51.382;0.016;2022-11-14T12:08:50;23.48;;;16.27;;
31083;SDS011;36333;51.382;0.016;2022-11-14T12:11:44;20.90;;;15.25;;
31083;SDS011;36333;51.382;0.016;2022-11-14T12:30:18;29.08;;;17.25;;
31083;SDS011;36333;51.382;0.016;2022-11-14T12:33:10;28.10;;;18.40;;
31083;SDS011;36333;51.382;0.016;2022-11-14T12:36:03;27.70;;;17.85;;
31083;SDS011;36333;51.382;0.016;2022-11-14T12:38:54;29.73;;;18.02;;
31083;SDS011;36333;51.382;0.016;2022-11-14T12:41:41;30.63;;;19.70;;
31083;SDS011;36333;51.382;0.016;2022-11-14T12:47:18;30.98;;;18.65;;
31083;SDS011;36333;51.382;0.016;2022-11-14T12:53:35;26.95;;;18.48;;
31083;SDS011;36333;51.382;0.016;2022-11-14T13:02:31;25.50;;;17.50;;
31083;SDS011;36333;51.382;0.016;2022-11-14T13:15:29;32.22;;;21.08;;
31083;SDS011;36333;51.382;0.016;2022-11-14T13:18:48;34.50;;;21.05;;
31083;SDS011;36333;51.382;0.016;2022-11-14T13:22:18;31.38;;;19.35;;
31083;SDS011;36333;51.382;0.016;2022-11-14T13:25:22;35.92;;;19.77;;
31083;SDS011;36333;51.382;0.016;2022-11-14T13:34:27;32.80;;;21.20;;
31083;SDS011;36333;51.382;0.016;2022-11-14T13:51:02;32.53;;;22.42;;
31083;SDS011;36333;51.382;0.016;2022-11-14T13:54:11;41.75;;;22.67;;
31083;SDS011;36333;51.382;0.016;2022-11-14T14:00:15;35.22;;;23.27;;
31083;SDS011;36333;51.382;0.016;2022-11-14T14:15:29;44.55;;;25.10;;
31083;SDS011;36333;51.382;0.016;2022-11-14T14:21:13;44.20;;;26.50;;
31083;SDS011;36333;51.382;0.016;2022-11-14T14:27:33;45.07;;;28.00;;
31083;SDS011;36333;51.382;0.016;2022-11-14T14:30:59;43.47;;;27.90;;
31083;SDS011;36333;51.382;0.016;2022-11-14T14:33:56;45.70;;;27.98;;
31083;SDS011;36333;51.382;0.016;2022-11-14T14:36:47;49.47;;;31.05;;
31083;SDS011;36333;51.382;0.016;2022-11-14T14:39:35;49.90;;;29.73;;
31083;SDS011;36333;51.382;0.016;2022-11-14T14:42:21;55.75;;;30.88;;
31083;SDS011;36333;51.382;0.016;2022-11-14T14:45:14;46.15;;;29.58;;
31083;SDS011;36333;51.382;0.016;2022-11-14T14:51:02;45.33;;;27.90;;
31083;SDS011;36333;51.382;0.016;2022-11-14T14:53:50;46.47;;;27.42;;
31083;SDS011;36333;51.382;0.016;2022-11-14T14:56:38;51.00;;;29.23;;
31083;SDS011;36333;51.382;0.016;2022-11-14T14:59:24;54.67;;;32.05;;
31083;SDS011;36333;51.382;0.016;2022-11-14T15:02:15;64.40;;;35.58;;
31083;SDS011;36333;51.382;0.016;2022-11-14T15:05:02;61.00;;;33.83;;
31083;SDS011;36333;51.382;0.016;2022-11-14T15:07:50;60.33;;;34.60;;
31083;SDS011;36333;51.382;0.016;2022-11-14T15:10:39;65.15;;;37.25;;
31083;SDS011;36333;51.382;0.016;2022-11-14T15:13:27;62.85;;;36.63;;
31083;SDS011;36333;51.382;0.016;2022-11-14T15:16:14;61.20;;;35.22;;
31083;SDS011;36333;51.382;0.016;2022-11-14T15:19:03;54.55;;;33.20;;
31083;SDS011;36333;51.382;0.016;2022-11-14T15:25:05;59.92;;;34.30;;
31083;SDS011;36333;51.382;0.016;2022-11-14T15:33:41;69.32;;;38.30;;
31083;SDS011;36333;51.382;0.016;2022-11-14T15:36:27;72.70;;;39.22;;
31083;SDS011;36333;51.382;0.016;2022-11-14T15:39:21;67.63;;;36.88;;
31083;SDS011;36333;51.382;0.016;2022-11-14T15:45:21;77.20;;;38.85;;
31083;SDS011;36333;51.382;0.016;2022-11-14T15:48:12;71.45;;;38.00;;
31083;SDS011;36333;51.382;0.016;2022-11-14T15:51:02;72.75;;;37.10;;
31083;SDS011;36333;51.382;0.016;2022-11-14T15:53:48;73.25;;;37.15;;
31083;SDS011;36333;51.382;0.016;2022-11-14T15:56:36;80.97;;;41.72;;
31083;SDS011;36333;51.382;0.016;2022-11-14T15:59:22;81.40;;;40.15;;
31083;SDS011;36333;51.382;0.016;2022-11-14T16:02:11;78.95;;;40.45;;
31083;SDS011;36333;51.382;0.016;2022-11-14T16:05:10;77.13;;;39.85;;
31083;SDS011;36333;51.382;0.016;2022-11-14T16:07:58;78.13;;;41.83;;
31083;SDS011;36333;51.382;0.016;2022-11-14T16:10:44;85.95;;;40.03;;
31083;SDS011;36333;51.382;0.016;2022-11-14T16:13:30;81.82;;;39.28;;
31083;SDS011;36333;51.382;0.016;2022-11-14T16:16:16;73.72;;;39.10;;
31083;SDS011;36333;51.382;0.016;2022-11-14T16:19:02;78.65;;;39.08;;
31083;SDS011;36333;51.382;0.016;2022-11-14T16:21:49;69.13;;;38.13;;
31083;SDS011;36333;51.382;0.016;2022-11-14T16:24:35;71.85;;;38.65;;
31083;SDS011;36333;51.382;0.016;2022-11-14T16:27:22;74.00;;;38.33;;
31083;SDS011;36333;51.382;0.016;2022-11-14T16:30:09;70.68;;;35.30;;
31083;SDS011;36333;51.382;0.016;2022-11-14T16:32:57;64.75;;;33.95;;
31083;SDS011;36333;51.382;0.016;2022-11-14T16:35:43;60.73;;;33.17;;
31083;SDS011;36333;51.382;0.016;2022-11-14T16:38:32;63.60;;;34.40;;
31083;SDS011;36333;51.382;0.016;2022-11-14T16:41:18;63.42;;;33.55;;
31083;SDS011;36333;51.382;0.016;2022-11-14T16:44:04;64.72;;;33.80;;
31083;SDS011;36333;51.382;0.016;2022-11-14T16:46:51;67.28;;;35.58;;
31083;SDS011;36333;51.382;0.016;2022-11-14T16:49:37;57.53;;;32.25;;
31083;SDS011;36333;51.382;0.016;2022-11-14T16:52:25;61.53;;;33.42;;
31083;SDS011;36333;51.382;0.016;2022-11-14T16:55:11;64.75;;;34.60;;
31083;SDS011;36333;51.382;0.016;2022-11-14T16:57:57;66.22;;;35.42;;
31083;SDS011;36333;51.382;0.016;2022-11-14T17:00:43;62.63;;;36.22;;
31083;SDS011;36333;51.382;0.016;2022-11-14T17:03:30;67.30;;;37.40;;
31083;SDS011;36333;51.382;0.016;2022-11-14T17:06:17;69.18;;;36.53;;
31083;SDS011;36333;51.382;0.016;2022-11-14T17:09:03;82.32;;;40.45;;
31083;SDS011;36333;51.382;0.016;2022-11-14T17:11:49;73.97;;;40.85;;
31083;SDS011;36333;51.382;0.016;2022-11-14T17:14:36;85.72;;;43.47;;
31083;SDS011;36333;51.382;0.016;2022-11-14T17:17:25;85.22;;;44.38;;
31083;SDS011;36333;51.382;0.016;2022-11-14T17:20:11;82.03;;;43.45;;
31083;SDS011;36333;51.382;0.016;2022-11-14T17:23:00;86.65;;;45.00;;
31083;SDS011;36333;51.382;0.016;2022-11-14T17:25:46;86.15;;;47.65;;
31083;SDS011;36333;51.382;0.016;2022-11-14T17:28:32;92.15;;;47.42;;
31083;SDS011;36333;51.382;0.016;2022-11-14T17:31:19;93.40;;;47.58;;
31083;SDS011;36333;51.382;0.016;2022-11-14T17:34:07;102.22;;;49.88;;
31083;SDS011;36333;51.382;0.016;2022-11-14T17:36:54;94.78;;;49.42;;
31083;SDS011;36333;51.382;0.016;2022-11-14T17:39:40;95.03;;;47.78;;
31083;SDS011;36333;51.382;0.016;2022-11-14T17:42:26;84.82;;;43.30;;
31083;SDS011;36333;51.382;0.016;2022-11-14T17:45:12;99.03;;;48.25;;
31083;SDS011;36333;51.382;0.016;2022-11-14T17:47:58;92.60;;;45.35;;
31083;SDS011;36333;51.382;0.016;2022-11-14T17:50:44;81.60;;;42.72;;
31083;SDS011;36333;51.382;0.016;2022-11-14T17:53:31;97.32;;;47.25;;
31083;SDS011;36333;51.382;0.016;2022-11-14T17:56:24;114.15;;;50.20;;
31083;SDS011;36333;51.382;0.016;2022-11-14T17:59:10;110.95;;;47.10;;
31083;SDS011;36333;51.382;0.016;2022-11-14T18:01:56;134.18;;;51.45;;
31083;SDS011;36333;51.382;0.016;2022-11-14T18:04:44;119.50;;;49.47;;
31083;SDS011;36333;51.382;0.016;2022-11-14T18:07:31;113.22;;;49.28;;
31083;SDS011;36333;51.382;0.016;2022-11-14T18:10:17;120.97;;;51.42;;
31083;SDS011;36333;51.382;0.016;2022-11-14T18:13:04;135.52;;;54.63;;
31083;SDS011;36333;51.382;0.016;2022-11-14T18:15:50;127.70;;;52.67;;
31083;SDS011;36333;51.382;0.016;2022-11-14T18:18:36;129.40;;;51.78;;
31083;SDS011;36333;51.382;0.016;2022-11-14T18:21:23;139.18;;;53.72;;
31083;SDS011;36333;51.382;0.016;2022-11-14T18:24:13;126.55;;;52.05;;
31083;SDS011;36333;51.382;0.016;2022-11-14T18:26:59;136.95;;;54.38;;